sensor_id;sensor_type;location;lat;lon;timestamp;P1;durP1;ratioP1;P2;durP2;ratioP2
67749;SDS011;54550;48.838;8.828;2024-03-07T00:01:09;42.65;;;16.38;;
67749;SDS011;54550;48.838;8.828;2024-03-07T00:03:44;47.65;;;15.95;;
67749;SDS011;54550;48.838;8.828;2024-03-07T00:06:12;45.03;;;16.83;;
67749;SDS011;54550;48.838;8.828;2024-03-07T00:08:37;43.92;;;15.25;;
67749;SDS011;54550;48.838;8.828;2024-03-07T00:11:23;41.13;;;16.50;;
67749;SDS011;54550;48.838;8.828;2024-03-07T00:17:24;46.97;;;15.05;;
67749;SDS011;54550;48.838;8.828;2024-03-07T00:20:04;37.47;;;15.00;;
67749;SDS011;54550;48.838;8.828;2024-03-07T00:22:45;51.33;;;17.10;;
67749;SDS011;54550;48.838;8.828;2024-03-07T00:25:50;43.97;;;16.23;;
67749;SDS011;54550;48.838;8.828;2024-03-07T00:28:25;41.28;;;14.60;;
67749;SDS011;54550;48.838;8.828;2024-03-07T00:36:45;37.05;;;13.98;;
67749;SDS011;54550;48.838;8.828;2024-03-07T00:39:26;51.25;;;15.57;;
67749;SDS011;54550;48.838;8.828;2024-03-07T00:41:52;40.40;;;14.60;;
67749;SDS011;54550;48.838;8.828;2024-03-07T00:44:24;36.28;;;13.18;;
67749;SDS011;54550;48.838;8.828;2024-03-07T00:50:10;34.00;;;12.98;;
67749;SDS011;54550;48.838;8.828;2024-03-07T00:56:01;35.30;;;13.52;;
67749;SDS011;54550;48.838;8.828;2024-03-07T00:58:58;50.00;;;16.85;;
67749;SDS011;54550;48.838;8.828;2024-03-07T01:02:11;45.03;;;15.18;;
67749;SDS011;54550;48.838;8.828;2024-03-07T01:04:59;40.17;;;12.93;;
67749;SDS011;54550;48.838;8.828;2024-03-07T01:11:23;43.20;;;15.70;;
67749;SDS011;54550;48.838;8.828;2024-03-07T01:14:54;48.40;;;14.50;;
67749;SDS011;54550;48.838;8.828;2024-03-07T01:20:58;42.50;;;14.10;;
67749;SDS011;54550;48.838;8.828;2024-03-07T01:27:40;42.33;;;14.40;;
67749;SDS011;54550;48.838;8.828;2024-03-07T01:30:06;41.55;;;15.70;;
67749;SDS011;54550;48.838;8.828;2024-03-07T01:33:18;43.85;;;16.15;;
67749;SDS011;54550;48.838;8.828;2024-03-07T01:36:10;42.22;;;14.82;;
67749;SDS011;54550;48.838;8.828;2024-03-07T01:39:28;36.13;;;14.65;;
67749;SDS011;54550;48.838;8.828;2024-03-07T01:42:08;41.20;;;14.13;;
67749;SDS011;54550;48.838;8.828;2024-03-07T01:44:48;40.75;;;14.93;;
67749;SDS011;54550;48.838;8.828;2024-03-07T01:47:37;42.05;;;15.77;;
67749;SDS011;54550;48.838;8.828;2024-03-07T01:50:14;41.85;;;14.60;;
67749;SDS011;54550;48.838;8.828;2024-03-07T01:53:10;39.53;;;16.33;;
67749;SDS011;54550;48.838;8.828;2024-03-07T01:59:33;45.28;;;17.17;;
67749;SDS011;54550;48.838;8.828;2024-03-07T02:02:05;46.25;;;17.40;;
67749;SDS011;54550;48.838;8.828;2024-03-07T02:07:50;50.53;;;17.73;;
67749;SDS011;54550;48.838;8.828;2024-03-07T02:10:30;42.70;;;15.45;;
67749;SDS011;54550;48.838;8.828;2024-03-07T02:13:07;42.83;;;14.65;;
67749;SDS011;54550;48.838;8.828;2024-03-07T02:18:25;39.40;;;14.43;;
67749;SDS011;54550;48.838;8.828;2024-03-07T02:21:24;53.72;;;18.05;;
67749;SDS011;54550;48.838;8.828;2024-03-07T02:27:44;39.92;;;16.00;;
67749;SDS011;54550;48.838;8.828;2024-03-07T02:30:28;47.90;;;17.55;;
67749;SDS011;54550;48.838;8.828;2024-03-07T02:33:22;40.40;;;16.63;;
67749;SDS011;54550;48.838;8.828;2024-03-07T02:36:40;33.83;;;15.90;;
67749;SDS011;54550;48.838;8.828;2024-03-07T02:39:09;39.35;;;16.48;;
67749;SDS011;54550;48.838;8.828;2024-03-07T02:42:01;35.47;;;13.85;;
67749;SDS011;54550;48.838;8.828;2024-03-07T02:44:52;46.55;;;16.67;;
67749;SDS011;54550;48.838;8.828;2024-03-07T02:48:01;37.33;;;14.15;;
67749;SDS011;54550;48.838;8.828;2024-03-07T02:50:37;39.33;;;14.93;;
67749;SDS011;54550;48.838;8.828;2024-03-07T02:53:50;45.35;;;17.42;;
67749;SDS011;54550;48.838;8.828;2024-03-07T02:56:16;47.67;;;16.45;;
67749;SDS011;54550;48.838;8.828;2024-03-07T02:58:53;53.65;;;16.85;;
67749;SDS011;54550;48.838;8.828;2024-03-07T03:01:24;42.03;;;15.02;;
67749;SDS011;54550;48.838;8.828;2024-03-07T03:03:55;51.20;;;17.73;;
67749;SDS011;54550;48.838;8.828;2024-03-07T03:06:27;44.30;;;16.27;;
67749;SDS011;54550;48.838;8.828;2024-03-07T03:09:17;47.42;;;17.50;;
67749;SDS011;54550;48.838;8.828;2024-03-07T03:11:49;55.42;;;19.45;;
67749;SDS011;54550;48.838;8.828;2024-03-07T03:14:32;53.42;;;19.80;;
67749;SDS011;54550;48.838;8.828;2024-03-07T03:17:13;47.20;;;16.55;;
67749;SDS011;54550;48.838;8.828;2024-03-07T03:19:51;47.60;;;15.80;;
67749;SDS011;54550;48.838;8.828;2024-03-07T03:22:42;43.13;;;17.02;;
67749;SDS011;54550;48.838;8.828;2024-03-07T03:25:09;46.17;;;16.60;;
67749;SDS011;54550;48.838;8.828;2024-03-07T03:27:39;55.72;;;19.80;;
67749;SDS011;54550;48.838;8.828;2024-03-07T03:30:10;49.30;;;16.17;;
67749;SDS011;54550;48.838;8.828;2024-03-07T03:32:46;50.92;;;18.42;;
67749;SDS011;54550;48.838;8.828;2024-03-07T03:35:33;54.08;;;19.10;;
67749;SDS011;54550;48.838;8.828;2024-03-07T03:38:28;52.30;;;17.95;;
67749;SDS011;54550;48.838;8.828;2024-03-07T03:41:36;31.88;;;15.13;;
67749;SDS011;54550;48.838;8.828;2024-03-07T03:44:25;43.65;;;17.88;;
67749;SDS011;54550;48.838;8.828;2024-03-07T03:47:19;45.92;;;17.52;;
67749;SDS011;54550;48.838;8.828;2024-03-07T03:50:05;51.50;;;18.58;;
67749;SDS011;54550;48.838;8.828;2024-03-07T03:53:10;40.75;;;15.60;;
67749;SDS011;54550;48.838;8.828;2024-03-07T03:55:48;54.55;;;18.27;;
67749;SDS011;54550;48.838;8.828;2024-03-07T03:58:51;41.35;;;15.80;;
67749;SDS011;54550;48.838;8.828;2024-03-07T04:01:34;46.63;;;15.90;;
67749;SDS011;54550;48.838;8.828;2024-03-07T04:04:16;42.05;;;14.70;;
67749;SDS011;54550;48.838;8.828;2024-03-07T04:06:59;37.20;;;14.18;;
67749;SDS011;54550;48.838;8.828;2024-03-07T04:10:08;31.40;;;12.60;;
67749;SDS011;54550;48.838;8.828;2024-03-07T04:16:48;41.67;;;15.02;;
67749;SDS011;54550;48.838;8.828;2024-03-07T04:19:23;34.58;;;14.98;;
67749;SDS011;54550;48.838;8.828;2024-03-07T04:21:59;43.13;;;16.67;;
67749;SDS011;54550;48.838;8.828;2024-03-07T04:24:40;39.90;;;14.82;;
67749;SDS011;54550;48.838;8.828;2024-03-07T04:27:44;35.83;;;13.48;;
67749;SDS011;54550;48.838;8.828;2024-03-07T04:30:39;34.15;;;12.77;;
67749;SDS011;54550;48.838;8.828;2024-03-07T04:36:25;36.05;;;14.82;;
67749;SDS011;54550;48.838;8.828;2024-03-07T04:39:05;40.90;;;15.20;;
67749;SDS011;54550;48.838;8.828;2024-03-07T04:45:12;32.90;;;12.00;;
67749;SDS011;54550;48.838;8.828;2024-03-07T04:48:18;42.67;;;15.98;;
67749;SDS011;54550;48.838;8.828;2024-03-07T04:50:47;41.08;;;15.88;;
67749;SDS011;54550;48.838;8.828;2024-03-07T04:53:17;43.75;;;15.18;;
67749;SDS011;54550;48.838;8.828;2024-03-07T04:56:37;37.72;;;13.55;;
67749;SDS011;54550;48.838;8.828;2024-03-07T04:59:04;34.65;;;13.15;;
67749;SDS011;54550;48.838;8.828;2024-03-07T05:02:05;33.90;;;12.65;;
67749;SDS011;54550;48.838;8.828;2024-03-07T05:04:58;33.65;;;12.85;;
67749;SDS011;54550;48.838;8.828;2024-03-07T05:07:53;30.10;;;12.40;;
67749;SDS011;54550;48.838;8.828;2024-03-07T05:10:21;37.35;;;14.23;;
67749;SDS011;54550;48.838;8.828;2024-03-07T05:12:50;36.22;;;13.55;;
67749;SDS011;54550;48.838;8.828;2024-03-07T05:15:21;36.65;;;16.00;;
67749;SDS011;54550;48.838;8.828;2024-03-07T05:18:16;36.22;;;13.40;;
67749;SDS011;54550;48.838;8.828;2024-03-07T05:20:57;35.40;;;13.20;;
67749;SDS011;54550;48.838;8.828;2024-03-07T05:24:24;37.97;;;15.13;;
67749;SDS011;54550;48.838;8.828;2024-03-07T05:27:01;30.13;;;12.38;;
67749;SDS011;54550;48.838;8.828;2024-03-07T05:29:34;35.25;;;13.25;;
67749;SDS011;54550;48.838;8.828;2024-03-07T05:35:34;33.92;;;11.40;;
67749;SDS011;54550;48.838;8.828;2024-03-07T05:38:15;38.38;;;14.30;;
67749;SDS011;54550;48.838;8.828;2024-03-07T05:40:50;31.08;;;14.48;;
67749;SDS011;54550;48.838;8.828;2024-03-07T05:43:19;36.17;;;13.70;;
67749;SDS011;54550;48.838;8.828;2024-03-07T05:45:53;35.42;;;13.75;;
67749;SDS011;54550;48.838;8.828;2024-03-07T05:48:41;34.83;;;12.55;;
67749;SDS011;54550;48.838;8.828;2024-03-07T05:51:24;33.85;;;12.50;;
67749;SDS011;54550;48.838;8.828;2024-03-07T05:53:53;36.78;;;13.52;;
67749;SDS011;54550;48.838;8.828;2024-03-07T05:56:25;29.58;;;12.23;;
67749;SDS011;54550;48.838;8.828;2024-03-07T05:59:56;38.53;;;14.30;;
67749;SDS011;54550;48.838;8.828;2024-03-07T06:02:37;28.02;;;12.05;;
67749;SDS011;54550;48.838;8.828;2024-03-07T06:05:04;27.02;;;10.68;;
67749;SDS011;54550;48.838;8.828;2024-03-07T06:10:40;29.70;;;12.10;;
67749;SDS011;54550;48.838;8.828;2024-03-07T06:16:46;28.27;;;11.70;;
67749;SDS011;54550;48.838;8.828;2024-03-07T06:19:50;44.83;;;17.65;;
67749;SDS011;54550;48.838;8.828;2024-03-07T06:22:30;47.88;;;18.15;;
67749;SDS011;54550;48.838;8.828;2024-03-07T06:25:32;33.95;;;14.00;;
67749;SDS011;54550;48.838;8.828;2024-03-07T06:28:45;32.55;;;14.40;;
67749;SDS011;54550;48.838;8.828;2024-03-07T06:31:07;41.15;;;15.75;;
67749;SDS011;54550;48.838;8.828;2024-03-07T06:36:46;32.20;;;14.43;;
67749;SDS011;54550;48.838;8.828;2024-03-07T06:39:30;27.40;;;11.65;;
67749;SDS011;54550;48.838;8.828;2024-03-07T06:42:00;28.45;;;13.93;;
67749;SDS011;54550;48.838;8.828;2024-03-07T06:44:25;30.85;;;13.13;;
67749;SDS011;54550;48.838;8.828;2024-03-07T06:46:55;40.47;;;13.98;;
67749;SDS011;54550;48.838;8.828;2024-03-07T06:50:12;30.92;;;13.52;;
67749;SDS011;54550;48.838;8.828;2024-03-07T06:52:25;24.10;;;11.23;;
67749;SDS011;54550;48.838;8.828;2024-03-07T06:55:02;40.15;;;14.82;;
67749;SDS011;54550;48.838;8.828;2024-03-07T06:57:33;37.53;;;15.43;;
67749;SDS011;54550;48.838;8.828;2024-03-07T07:00:11;40.58;;;16.20;;
67749;SDS011;54550;48.838;8.828;2024-03-07T07:02:55;38.58;;;13.98;;
67749;SDS011;54550;48.838;8.828;2024-03-07T07:06:32;35.42;;;13.80;;
67749;SDS011;54550;48.838;8.828;2024-03-07T07:08:58;33.30;;;12.95;;
67749;SDS011;54550;48.838;8.828;2024-03-07T07:11:39;36.65;;;12.77;;
67749;SDS011;54550;48.838;8.828;2024-03-07T07:14:14;34.25;;;13.32;;
67749;SDS011;54550;48.838;8.828;2024-03-07T07:16:58;37.08;;;15.85;;
67749;SDS011;54550;48.838;8.828;2024-03-07T07:19:57;37.45;;;14.73;;
67749;SDS011;54550;48.838;8.828;2024-03-07T07:25:22;25.65;;;11.73;;
67749;SDS011;54550;48.838;8.828;2024-03-07T07:28:32;45.28;;;16.88;;
67749;SDS011;54550;48.838;8.828;2024-03-07T07:31:24;21.15;;;9.18;;
67749;SDS011;54550;48.838;8.828;2024-03-07T07:33:54;34.97;;;13.27;;
67749;SDS011;54550;48.838;8.828;2024-03-07T07:36:33;28.73;;;13.88;;
67749;SDS011;54550;48.838;8.828;2024-03-07T07:39:48;39.08;;;13.18;;
67749;SDS011;54550;48.838;8.828;2024-03-07T07:42:07;39.72;;;14.43;;
67749;SDS011;54550;48.838;8.828;2024-03-07T07:44:48;41.05;;;15.93;;
67749;SDS011;54550;48.838;8.828;2024-03-07T07:47:16;40.38;;;15.18;;
67749;SDS011;54550;48.838;8.828;2024-03-07T07:50:11;34.83;;;13.38;;
67749;SDS011;54550;48.838;8.828;2024-03-07T07:58:57;30.05;;;10.27;;
67749;SDS011;54550;48.838;8.828;2024-03-07T08:01:25;25.15;;;10.30;;
67749;SDS011;54550;48.838;8.828;2024-03-07T08:04:02;28.00;;;12.35;;
67749;SDS011;54550;48.838;8.828;2024-03-07T08:06:34;34.55;;;14.43;;
67749;SDS011;54550;48.838;8.828;2024-03-07T08:12:19;57.53;;;19.33;;
67749;SDS011;54550;48.838;8.828;2024-03-07T08:14:45;68.32;;;22.05;;
67749;SDS011;54550;48.838;8.828;2024-03-07T08:17:25;123.88;;;30.10;;
67749;SDS011;54550;48.838;8.828;2024-03-07T08:19:56;79.25;;;24.88;;
67749;SDS011;54550;48.838;8.828;2024-03-07T08:22:40;77.18;;;24.00;;
67749;SDS011;54550;48.838;8.828;2024-03-07T08:25:15;75.85;;;25.20;;
67749;SDS011;54550;48.838;8.828;2024-03-07T08:27:49;59.83;;;21.90;;
67749;SDS011;54550;48.838;8.828;2024-03-07T08:30:34;41.85;;;16.42;;
67749;SDS011;54550;48.838;8.828;2024-03-07T08:33:06;33.38;;;13.82;;
67749;SDS011;54550;48.838;8.828;2024-03-07T08:35:34;28.45;;;10.98;;
67749;SDS011;54550;48.838;8.828;2024-03-07T08:38:03;22.98;;;9.95;;
67749;SDS011;54550;48.838;8.828;2024-03-07T08:40:30;22.60;;;9.38;;
67749;SDS011;54550;48.838;8.828;2024-03-07T08:46:31;21.88;;;9.18;;
67749;SDS011;54550;48.838;8.828;2024-03-07T08:49:04;24.50;;;10.50;;
67749;SDS011;54550;48.838;8.828;2024-03-07T08:51:30;20.33;;;8.75;;
67749;SDS011;54550;48.838;8.828;2024-03-07T08:53:56;27.08;;;11.20;;
67749;SDS011;54550;48.838;8.828;2024-03-07T08:56:22;23.85;;;9.73;;
67749;SDS011;54550;48.838;8.828;2024-03-07T08:58:51;29.27;;;9.82;;
67749;SDS011;54550;48.838;8.828;2024-03-07T09:01:19;27.95;;;10.25;;
67749;SDS011;54550;48.838;8.828;2024-03-07T09:03:46;25.42;;;10.57;;
67749;SDS011;54550;48.838;8.828;2024-03-07T09:06:14;27.95;;;11.07;;
67749;SDS011;54550;48.838;8.828;2024-03-07T09:08:40;27.80;;;11.43;;
67749;SDS011;54550;48.838;8.828;2024-03-07T09:11:06;26.98;;;11.50;;
67749;SDS011;54550;48.838;8.828;2024-03-07T09:13:32;22.75;;;10.10;;
67749;SDS011;54550;48.838;8.828;2024-03-07T09:15:58;27.45;;;12.18;;
67749;SDS011;54550;48.838;8.828;2024-03-07T09:18:31;31.75;;;12.65;;
67749;SDS011;54550;48.838;8.828;2024-03-07T09:20:59;29.13;;;11.80;;
67749;SDS011;54550;48.838;8.828;2024-03-07T09:23:39;27.90;;;12.32;;
67749;SDS011;54550;48.838;8.828;2024-03-07T09:26:08;32.95;;;13.10;;
67749;SDS011;54550;48.838;8.828;2024-03-07T09:28:33;31.27;;;13.43;;
67749;SDS011;54550;48.838;8.828;2024-03-07T09:31:02;33.53;;;14.32;;
67749;SDS011;54550;48.838;8.828;2024-03-07T09:33:28;37.90;;;15.35;;
67749;SDS011;54550;48.838;8.828;2024-03-07T09:35:55;32.03;;;14.17;;
67749;SDS011;54550;48.838;8.828;2024-03-07T09:38:23;25.58;;;11.05;;
67749;SDS011;54550;48.838;8.828;2024-03-07T09:40:54;27.98;;;12.48;;
67749;SDS011;54550;48.838;8.828;2024-03-07T09:43:38;29.13;;;10.77;;
67749;SDS011;54550;48.838;8.828;2024-03-07T09:46:04;22.77;;;10.32;;
67749;SDS011;54550;48.838;8.828;2024-03-07T09:48:41;26.15;;;11.10;;
67749;SDS011;54550;48.838;8.828;2024-03-07T09:51:16;30.60;;;11.00;;
67749;SDS011;54550;48.838;8.828;2024-03-07T09:53:45;28.15;;;11.48;;
67749;SDS011;54550;48.838;8.828;2024-03-07T09:58:54;32.13;;;10.85;;
67749;SDS011;54550;48.838;8.828;2024-03-07T10:01:24;26.10;;;11.75;;
67749;SDS011;54550;48.838;8.828;2024-03-07T10:03:57;28.23;;;11.43;;
67749;SDS011;54550;48.838;8.828;2024-03-07T10:06:38;26.02;;;11.48;;
67749;SDS011;54550;48.838;8.828;2024-03-07T10:11:30;27.38;;;11.18;;
67749;SDS011;54550;48.838;8.828;2024-03-07T10:13:56;30.83;;;12.15;;
67749;SDS011;54550;48.838;8.828;2024-03-07T10:16:24;23.52;;;10.65;;
67749;SDS011;54550;48.838;8.828;2024-03-07T10:19:05;29.10;;;12.02;;
67749;SDS011;54550;48.838;8.828;2024-03-07T10:21:48;29.17;;;12.82;;
67749;SDS011;54550;48.838;8.828;2024-03-07T10:24:39;27.63;;;11.95;;
67749;SDS011;54550;48.838;8.828;2024-03-07T10:27:19;27.90;;;11.07;;
67749;SDS011;54550;48.838;8.828;2024-03-07T10:29:48;32.08;;;11.75;;
67749;SDS011;54550;48.838;8.828;2024-03-07T10:32:20;25.73;;;12.07;;
67749;SDS011;54550;48.838;8.828;2024-03-07T10:35:25;28.38;;;11.98;;
67749;SDS011;54550;48.838;8.828;2024-03-07T10:37:54;27.83;;;11.65;;
67749;SDS011;54550;48.838;8.828;2024-03-07T10:40:37;28.30;;;10.82;;
67749;SDS011;54550;48.838;8.828;2024-03-07T10:43:09;33.05;;;11.80;;
67749;SDS011;54550;48.838;8.828;2024-03-07T10:45:45;26.40;;;10.50;;
67749;SDS011;54550;48.838;8.828;2024-03-07T10:48:16;28.23;;;11.32;;
67749;SDS011;54550;48.838;8.828;2024-03-07T11:00:29;27.38;;;11.27;;
67749;SDS011;54550;48.838;8.828;2024-03-07T11:03:15;24.42;;;10.40;;
67749;SDS011;54550;48.838;8.828;2024-03-07T11:05:41;24.27;;;9.60;;
67749;SDS011;54550;48.838;8.828;2024-03-07T11:08:08;21.63;;;9.00;;
67749;SDS011;54550;48.838;8.828;2024-03-07T11:10:41;23.85;;;9.88;;
67749;SDS011;54550;48.838;8.828;2024-03-07T11:13:12;23.10;;;10.02;;
67749;SDS011;54550;48.838;8.828;2024-03-07T11:15:43;22.63;;;9.95;;
67749;SDS011;54550;48.838;8.828;2024-03-07T11:18:16;24.50;;;9.85;;
67749;SDS011;54550;48.838;8.828;2024-03-07T11:20:42;28.40;;;10.60;;
67749;SDS011;54550;48.838;8.828;2024-03-07T11:23:30;26.90;;;10.20;;
67749;SDS011;54550;48.838;8.828;2024-03-07T11:26:09;24.35;;;10.27;;
67749;SDS011;54550;48.838;8.828;2024-03-07T11:28:36;21.85;;;9.90;;
67749;SDS011;54550;48.838;8.828;2024-03-07T11:31:09;22.98;;;10.38;;
67749;SDS011;54550;48.838;8.828;2024-03-07T11:33:38;29.05;;;10.18;;
67749;SDS011;54550;48.838;8.828;2024-03-07T11:36:08;24.90;;;9.88;;
67749;SDS011;54550;48.838;8.828;2024-03-07T11:38:36;27.58;;;10.00;;
67749;SDS011;54550;48.838;8.828;2024-03-07T11:41:13;27.70;;;9.77;;
67749;SDS011;54550;48.838;8.828;2024-03-07T11:43:42;21.70;;;9.07;;
67749;SDS011;54550;48.838;8.828;2024-03-07T11:46:08;23.33;;;9.88;;
67749;SDS011;54550;48.838;8.828;2024-03-07T11:48:41;21.33;;;9.30;;
67749;SDS011;54550;48.838;8.828;2024-03-07T11:51:07;22.05;;;9.23;;
67749;SDS011;54550;48.838;8.828;2024-03-07T11:53:36;21.52;;;8.68;;
67749;SDS011;54550;48.838;8.828;2024-03-07T11:56:23;25.70;;;11.13;;
67749;SDS011;54550;48.838;8.828;2024-03-07T11:58:49;20.75;;;8.35;;
67749;SDS011;54550;48.838;8.828;2024-03-07T12:01:20;25.92;;;9.38;;
67749;SDS011;54550;48.838;8.828;2024-03-07T12:03:50;27.00;;;9.98;;
67749;SDS011;54550;48.838;8.828;2024-03-07T12:06:18;24.60;;;9.68;;
67749;SDS011;54550;48.838;8.828;2024-03-07T12:08:45;24.92;;;9.93;;
67749;SDS011;54550;48.838;8.828;2024-03-07T12:11:12;22.70;;;10.02;;
67749;SDS011;54550;48.838;8.828;2024-03-07T12:13:40;23.38;;;9.43;;
67749;SDS011;54550;48.838;8.828;2024-03-07T12:16:07;22.38;;;8.88;;
67749;SDS011;54550;48.838;8.828;2024-03-07T12:18:33;20.73;;;8.80;;
67749;SDS011;54550;48.838;8.828;2024-03-07T12:21:01;23.52;;;8.02;;
67749;SDS011;54550;48.838;8.828;2024-03-07T12:23:31;25.05;;;10.07;;
67749;SDS011;54550;48.838;8.828;2024-03-07T12:25:59;22.63;;;9.18;;
67749;SDS011;54550;48.838;8.828;2024-03-07T12:28:26;21.50;;;9.68;;
67749;SDS011;54550;48.838;8.828;2024-03-07T12:30:53;30.10;;;10.40;;
67749;SDS011;54550;48.838;8.828;2024-03-07T12:33:19;23.25;;;9.15;;
67749;SDS011;54550;48.838;8.828;2024-03-07T12:35:50;23.80;;;8.98;;
67749;SDS011;54550;48.838;8.828;2024-03-07T12:38:26;29.67;;;9.82;;
67749;SDS011;54550;48.838;8.828;2024-03-07T12:41:10;27.25;;;10.50;;
67749;SDS011;54550;48.838;8.828;2024-03-07T12:43:42;22.98;;;9.80;;
67749;SDS011;54550;48.838;8.828;2024-03-07T12:46:12;27.45;;;11.30;;
67749;SDS011;54550;48.838;8.828;2024-03-07T12:48:40;26.33;;;11.00;;
67749;SDS011;54550;48.838;8.828;2024-03-07T12:51:14;33.13;;;11.13;;
67749;SDS011;54550;48.838;8.828;2024-03-07T12:53:50;27.52;;;10.88;;
67749;SDS011;54550;48.838;8.828;2024-03-07T12:56:19;30.20;;;11.45;;
67749;SDS011;54550;48.838;8.828;2024-03-07T12:58:45;30.05;;;12.45;;
67749;SDS011;54550;48.838;8.828;2024-03-07T13:01:25;30.77;;;11.88;;
67749;SDS011;54550;48.838;8.828;2024-03-07T13:03:57;24.88;;;10.02;;
67749;SDS011;54550;48.838;8.828;2024-03-07T13:06:26;30.45;;;10.45;;
67749;SDS011;54550;48.838;8.828;2024-03-07T13:08:54;27.98;;;12.13;;
67749;SDS011;54550;48.838;8.828;2024-03-07T13:11:21;32.28;;;11.15;;
67749;SDS011;54550;48.838;8.828;2024-03-07T13:13:47;25.85;;;9.75;;
67749;SDS011;54550;48.838;8.828;2024-03-07T13:16:16;30.35;;;12.05;;
67749;SDS011;54550;48.838;8.828;2024-03-07T13:18:41;31.98;;;11.77;;
67749;SDS011;54550;48.838;8.828;2024-03-07T13:21:17;25.88;;;11.07;;
67749;SDS011;54550;48.838;8.828;2024-03-07T13:23:45;29.05;;;11.02;;
67749;SDS011;54550;48.838;8.828;2024-03-07T13:26:14;39.30;;;12.15;;
67749;SDS011;54550;48.838;8.828;2024-03-07T13:28:45;26.92;;;11.20;;
67749;SDS011;54550;48.838;8.828;2024-03-07T13:31:12;30.08;;;11.73;;
67749;SDS011;54550;48.838;8.828;2024-03-07T13:33:37;33.75;;;11.45;;
67749;SDS011;54550;48.838;8.828;2024-03-07T13:36:03;29.00;;;10.75;;
67749;SDS011;54550;48.838;8.828;2024-03-07T13:38:29;30.00;;;11.05;;
67749;SDS011;54550;48.838;8.828;2024-03-07T13:40:55;30.50;;;13.15;;
67749;SDS011;54550;48.838;8.828;2024-03-07T13:43:29;31.42;;;12.07;;
67749;SDS011;54550;48.838;8.828;2024-03-07T13:46:13;31.55;;;12.57;;
67749;SDS011;54550;48.838;8.828;2024-03-07T13:48:40;31.90;;;11.18;;
67749;SDS011;54550;48.838;8.828;2024-03-07T13:51:10;32.38;;;11.68;;
67749;SDS011;54550;48.838;8.828;2024-03-07T13:53:40;29.10;;;11.77;;
67749;SDS011;54550;48.838;8.828;2024-03-07T13:59:22;31.27;;;12.27;;
67749;SDS011;54550;48.838;8.828;2024-03-07T14:18:18;29.23;;;11.57;;
67749;SDS011;54550;48.838;8.828;2024-03-07T14:33:01;27.83;;;11.45;;
67749;SDS011;54550;48.838;8.828;2024-03-07T14:38:48;30.27;;;11.55;;
67749;SDS011;54550;48.838;8.828;2024-03-07T14:44:47;28.77;;;10.82;;
67749;SDS011;54550;48.838;8.828;2024-03-07T14:47:19;38.13;;;13.30;;
67749;SDS011;54550;48.838;8.828;2024-03-07T14:49:46;32.08;;;15.10;;
67749;SDS011;54550;48.838;8.828;2024-03-07T14:52:15;27.13;;;12.52;;
67749;SDS011;54550;48.838;8.828;2024-03-07T14:55:03;25.73;;;12.35;;
67749;SDS011;54550;48.838;8.828;2024-03-07T14:57:32;27.08;;;11.63;;
67749;SDS011;54550;48.838;8.828;2024-03-07T15:00:34;24.65;;;10.30;;
67749;SDS011;54550;48.838;8.828;2024-03-07T15:03:11;27.23;;;10.75;;
67749;SDS011;54550;48.838;8.828;2024-03-07T15:05:45;20.40;;;9.88;;
67749;SDS011;54550;48.838;8.828;2024-03-07T15:08:37;24.17;;;10.95;;
67749;SDS011;54550;48.838;8.828;2024-03-07T15:11:29;27.50;;;11.90;;
67749;SDS011;54550;48.838;8.828;2024-03-07T15:14:07;27.33;;;11.43;;
67749;SDS011;54550;48.838;8.828;2024-03-07T15:16:36;29.85;;;11.95;;
67749;SDS011;54550;48.838;8.828;2024-03-07T15:19:06;26.05;;;11.98;;
67749;SDS011;54550;48.838;8.828;2024-03-07T15:21:33;27.88;;;11.43;;
67749;SDS011;54550;48.838;8.828;2024-03-07T15:26:25;25.67;;;11.15;;
67749;SDS011;54550;48.838;8.828;2024-03-07T15:29:00;26.95;;;11.20;;
67749;SDS011;54550;48.838;8.828;2024-03-07T15:31:26;30.40;;;11.48;;
67749;SDS011;54550;48.838;8.828;2024-03-07T15:33:52;26.38;;;11.85;;
67749;SDS011;54550;48.838;8.828;2024-03-07T15:36:22;29.70;;;11.25;;
67749;SDS011;54550;48.838;8.828;2024-03-07T15:38:57;25.98;;;11.20;;
67749;SDS011;54550;48.838;8.828;2024-03-07T15:41:50;32.08;;;12.88;;
67749;SDS011;54550;48.838;8.828;2024-03-07T15:44:19;26.33;;;11.05;;
67749;SDS011;54550;48.838;8.828;2024-03-07T15:46:53;31.38;;;12.05;;
67749;SDS011;54550;48.838;8.828;2024-03-07T15:49:27;34.53;;;13.30;;
67749;SDS011;54550;48.838;8.828;2024-03-07T15:51:55;34.50;;;13.23;;
67749;SDS011;54550;48.838;8.828;2024-03-07T15:54:24;34.72;;;11.75;;
67749;SDS011;54550;48.838;8.828;2024-03-07T15:56:51;32.60;;;12.45;;
67749;SDS011;54550;48.838;8.828;2024-03-07T15:59:18;27.08;;;11.77;;
67749;SDS011;54550;48.838;8.828;2024-03-07T16:02:07;30.27;;;12.63;;
67749;SDS011;54550;48.838;8.828;2024-03-07T16:04:35;31.38;;;11.88;;
67749;SDS011;54550;48.838;8.828;2024-03-07T16:07:01;32.03;;;12.88;;
67749;SDS011;54550;48.838;8.828;2024-03-07T16:09:38;28.88;;;11.45;;
67749;SDS011;54550;48.838;8.828;2024-03-07T16:12:10;28.85;;;12.55;;
67749;SDS011;54550;48.838;8.828;2024-03-07T16:14:37;28.52;;;12.68;;
67749;SDS011;54550;48.838;8.828;2024-03-07T16:17:07;32.65;;;11.70;;
67749;SDS011;54550;48.838;8.828;2024-03-07T16:19:39;28.85;;;11.18;;
67749;SDS011;54550;48.838;8.828;2024-03-07T16:22:25;34.65;;;13.52;;
67749;SDS011;54550;48.838;8.828;2024-03-07T16:25:13;33.88;;;12.73;;
67749;SDS011;54550;48.838;8.828;2024-03-07T16:27:40;27.85;;;11.50;;
67749;SDS011;54550;48.838;8.828;2024-03-07T16:30:11;25.98;;;11.90;;
67749;SDS011;54550;48.838;8.828;2024-03-07T16:32:38;32.35;;;12.50;;
67749;SDS011;54550;48.838;8.828;2024-03-07T16:35:08;26.85;;;10.55;;
67749;SDS011;54550;48.838;8.828;2024-03-07T16:37:55;27.58;;;11.63;;
67749;SDS011;54550;48.838;8.828;2024-03-07T16:40:22;27.15;;;11.05;;
67749;SDS011;54550;48.838;8.828;2024-03-07T16:42:48;26.83;;;10.65;;
67749;SDS011;54550;48.838;8.828;2024-03-07T16:45:23;25.83;;;10.55;;
67749;SDS011;54550;48.838;8.828;2024-03-07T16:47:51;24.33;;;11.07;;
67749;SDS011;54550;48.838;8.828;2024-03-07T16:50:21;25.10;;;10.48;;
67749;SDS011;54550;48.838;8.828;2024-03-07T16:52:48;26.73;;;10.77;;
67749;SDS011;54550;48.838;8.828;2024-03-07T16:55:18;27.98;;;10.23;;
67749;SDS011;54550;48.838;8.828;2024-03-07T16:57:51;28.98;;;12.35;;
67749;SDS011;54550;48.838;8.828;2024-03-07T17:00:42;23.27;;;9.50;;
67749;SDS011;54550;48.838;8.828;2024-03-07T17:03:10;26.88;;;10.18;;
67749;SDS011;54550;48.838;8.828;2024-03-07T17:05:46;31.60;;;10.63;;
67749;SDS011;54550;48.838;8.828;2024-03-07T17:08:19;26.20;;;10.50;;
67749;SDS011;54550;48.838;8.828;2024-03-07T17:10:50;24.33;;;9.23;;
67749;SDS011;54550;48.838;8.828;2024-03-07T17:13:21;27.40;;;10.68;;
67749;SDS011;54550;48.838;8.828;2024-03-07T17:15:51;50.15;;;17.27;;
67749;SDS011;54550;48.838;8.828;2024-03-07T17:18:31;29.33;;;12.27;;
67749;SDS011;54550;48.838;8.828;2024-03-07T17:21:09;25.90;;;10.73;;
67749;SDS011;54550;48.838;8.828;2024-03-07T17:23:39;25.80;;;9.23;;
67749;SDS011;54550;48.838;8.828;2024-03-07T17:26:44;24.55;;;9.15;;
67749;SDS011;54550;48.838;8.828;2024-03-07T17:29:21;20.55;;;8.55;;
67749;SDS011;54550;48.838;8.828;2024-03-07T17:31:50;23.48;;;9.75;;
67749;SDS011;54550;48.838;8.828;2024-03-07T17:34:30;23.88;;;9.55;;
67749;SDS011;54550;48.838;8.828;2024-03-07T17:36:57;25.45;;;9.57;;